sensor_id;sensor_type;location;lat;lon;timestamp;pressure;altitude;pressure_sealevel;temperature;humidity
35551;BME280;21655;46.056;13.616;2023-02-26T00:02:11;98735.59;;;7.71;100.00
35551;BME280;21655;46.056;13.616;2023-02-26T00:04:36;98772.31;;;7.71;100.00
35551;BME280;21655;46.056;13.616;2023-02-26T00:07:02;98761.69;;;7.68;100.00
35551;BME280;21655;46.056;13.616;2023-02-26T00:09:30;98747.44;;;7.65;100.00
35551;BME280;21655;46.056;13.616;2023-02-26T00:11:57;98774.19;;;7.71;100.00
35551;BME280;21655;46.056;13.616;2023-02-26T00:14:23;98783.34;;;7.71;100.00
35551;BME280;21655;46.056;13.616;2023-02-26T00:19:49;98750.00;;;7.66;100.00
35551;BME280;21655;46.056;13.616;2023-02-26T00:22:15;98770.78;;;7.69;100.00
35551;BME280;21655;46.056;13.616;2023-02-26T00:24:40;98756.75;;;7.64;100.00
35551;BME280;21655;46.056;13.616;2023-02-26T00:27:06;98749.94;;;7.60;100.00
35551;BME280;21655;46.056;13.616;2023-02-26T00:29:32;98782.41;;;7.58;100.00
35551;BME280;21655;46.056;13.616;2023-02-26T00:31:58;98765.84;;;7.58;100.00
35551;BME280;21655;46.056;13.616;2023-02-26T00:34:23;98779.41;;;7.59;100.00
35551;BME280;21655;46.056;13.616;2023-02-26T00:40:06;98788.28;;;7.55;100.00
35551;BME280;21655;46.056;13.616;2023-02-26T00:42:35;98755.00;;;7.56;100.00
35551;BME280;21655;46.056;13.616;2023-02-26T00:45:01;98791.03;;;7.55;100.00
35551;BME280;21655;46.056;13.616;2023-02-26T00:50:20;98791.19;;;7.47;100.00
35551;BME280;21655;46.056;13.616;2023-02-26T00:55:40;98774.59;;;7.40;100.00
35551;BME280;21655;46.056;13.616;2023-02-26T00:58:06;98798.53;;;7.40;100.00
35551;BME280;21655;46.056;13.616;2023-02-26T01:00:31;98776.06;;;7.37;100.00
35551;BME280;21655;46.056;13.616;2023-02-26T01:02:57;98811.25;;;7.35;100.00
35551;BME280;21655;46.056;13.616;2023-02-26T01:05:23;98755.25;;;7.34;100.00
35551;BME280;21655;46.056;13.616;2023-02-26T01:08:04;98766.22;;;7.28;100.00
35551;BME280;21655;46.056;13.616;2023-02-26T01:10:33;98765.56;;;7.26;100.00
35551;BME280;21655;46.056;13.616;2023-02-26T01:12:59;98786.50;;;7.20;100.00
35551;BME280;21655;46.056;13.616;2023-02-26T01:15:25;98782.03;;;7.19;100.00
35551;BME280;21655;46.056;13.616;2023-02-26T01:17:55;98789.25;;;7.20;100.00
35551;BME280;21655;46.056;13.616;2023-02-26T01:20:36;98762.75;;;7.19;100.00
35551;BME280;21655;46.056;13.616;2023-02-26T01:23:08;98812.56;;;7.18;100.00
35551;BME280;21655;46.056;13.616;2023-02-26T01:25:39;98822.72;;;7.17;100.00
35551;BME280;21655;46.056;13.616;2023-02-26T01:28:06;98814.84;;;7.14;100.00
35551;BME280;21655;46.056;13.616;2023-02-26T01:30:31;98813.97;;;7.14;100.00
35551;BME280;21655;46.056;13.616;2023-02-26T01:35:54;98810.19;;;7.15;100.00
35551;BME280;21655;46.056;13.616;2023-02-26T01:38:31;98828.16;;;7.11;100.00
35551;BME280;21655;46.056;13.616;2023-02-26T01:41:14;98815.91;;;7.13;100.00
35551;BME280;21655;46.056;13.616;2023-02-26T01:46:32;98828.56;;;7.08;100.00
35551;BME280;21655;46.056;13.616;2023-02-26T01:48:59;98845.75;;;7.10;100.00
35551;BME280;21655;46.056;13.616;2023-02-26T01:51:53;98862.47;;;7.08;100.00
35551;BME280;21655;46.056;13.616;2023-02-26T01:54:22;98875.31;;;7.01;100.00
35551;BME280;21655;46.056;13.616;2023-02-26T01:56:58;98876.84;;;7.04;100.00
35551;BME280;21655;46.056;13.616;2023-02-26T01:59:26;98882.75;;;7.01;100.00
35551;BME280;21655;46.056;13.616;2023-02-26T02:01:53;98862.59;;;7.00;100.00
35551;BME280;21655;46.056;13.616;2023-02-26T02:04:21;98848.16;;;6.98;100.00
35551;BME280;21655;46.056;13.616;2023-02-26T02:06:48;98868.59;;;6.89;100.00
35551;BME280;21655;46.056;13.616;2023-02-26T02:09:14;98883.25;;;6.90;100.00
35551;BME280;21655;46.056;13.616;2023-02-26T02:17:22;98901.28;;;6.92;100.00
35551;BME280;21655;46.056;13.616;2023-02-26T02:31:32;98914.78;;;6.87;100.00
35551;BME280;21655;46.056;13.616;2023-02-26T02:36:48;98884.88;;;6.84;100.00
35551;BME280;21655;46.056;13.616;2023-02-26T02:39:27;98884.88;;;6.84;100.00
35551;BME280;21655;46.056;13.616;2023-02-26T02:42:03;98885.72;;;6.85;100.00
35551;BME280;21655;46.056;13.616;2023-02-26T02:44:34;98872.31;;;6.82;100.00
35551;BME280;21655;46.056;13.616;2023-02-26T02:47:01;98858.75;;;6.80;100.00
35551;BME280;21655;46.056;13.616;2023-02-26T02:49:51;98893.50;;;6.81;100.00
35551;BME280;21655;46.056;13.616;2023-02-26T02:52:34;98875.47;;;6.79;100.00
35551;BME280;21655;46.056;13.616;2023-02-26T02:55:06;98861.44;;;6.74;100.00
35551;BME280;21655;46.056;13.616;2023-02-26T02:57:44;98875.69;;;6.77;100.00
35551;BME280;21655;46.056;13.616;2023-02-26T03:00:13;98857.63;;;6.75;100.00
35551;BME280;21655;46.056;13.616;2023-02-26T03:05:12;98882.22;;;6.76;100.00
35551;BME280;21655;46.056;13.616;2023-02-26T03:07:44;98916.50;;;6.74;100.00
35551;BME280;21655;46.056;13.616;2023-02-26T03:10:11;98895.41;;;6.81;100.00
35551;BME280;21655;46.056;13.616;2023-02-26T03:12:37;98897.97;;;6.82;100.00
35551;BME280;21655;46.056;13.616;2023-02-26T03:15:03;98916.03;;;6.85;100.00
35551;BME280;21655;46.056;13.616;2023-02-26T03:17:52;98917.25;;;6.82;100.00
35551;BME280;21655;46.056;13.616;2023-02-26T03:20:26;98946.25;;;6.78;100.00
35551;BME280;21655;46.056;13.616;2023-02-26T03:25:48;98957.53;;;6.83;100.00
35551;BME280;21655;46.056;13.616;2023-02-26T03:31:01;98954.50;;;6.78;100.00
35551;BME280;21655;46.056;13.616;2023-02-26T03:33:51;98940.44;;;6.73;100.00
35551;BME280;21655;46.056;13.616;2023-02-26T03:36:29;98923.25;;;6.71;100.00
35551;BME280;21655;46.056;13.616;2023-02-26T03:39:08;98921.16;;;6.73;100.00
35551;BME280;21655;46.056;13.616;2023-02-26T03:41:56;98926.00;;;6.71;100.00
35551;BME280;21655;46.056;13.616;2023-02-26T03:44:39;98919.16;;;6.67;100.00
35551;BME280;21655;46.056;13.616;2023-02-26T03:47:11;98879.97;;;6.65;100.00
35551;BME280;21655;46.056;13.616;2023-02-26T03:49:47;98928.47;;;6.66;100.00
35551;BME280;21655;46.056;13.616;2023-02-26T03:52:29;98926.28;;;6.62;100.00
35551;BME280;21655;46.056;13.616;2023-02-26T03:55:02;98946.72;;;6.67;100.00
35551;BME280;21655;46.056;13.616;2023-02-26T03:57:29;98951.34;;;6.67;100.00
35551;BME280;21655;46.056;13.616;2023-02-26T03:59:55;98957.34;;;6.70;100.00
35551;BME280;21655;46.056;13.616;2023-02-26T04:02:32;98945.47;;;6.70;100.00
35551;BME280;21655;46.056;13.616;2023-02-26T04:05:13;98975.94;;;6.68;100.00
35551;BME280;21655;46.056;13.616;2023-02-26T04:07:40;98978.72;;;6.68;100.00
35551;BME280;21655;46.056;13.616;2023-02-26T04:10:08;98984.38;;;6.67;100.00
35551;BME280;21655;46.056;13.616;2023-02-26T04:12:34;98992.84;;;6.65;100.00
35551;BME280;21655;46.056;13.616;2023-02-26T04:15:00;99005.31;;;6.61;100.00
35551;BME280;21655;46.056;13.616;2023-02-26T04:17:25;99009.94;;;6.61;100.00
35551;BME280;21655;46.056;13.616;2023-02-26T04:19:51;99043.47;;;6.64;100.00
35551;BME280;21655;46.056;13.616;2023-02-26T04:22:16;99034.72;;;6.61;100.00
35551;BME280;21655;46.056;13.616;2023-02-26T04:24:42;99030.75;;;6.63;100.00
35551;BME280;21655;46.056;13.616;2023-02-26T04:27:07;99003.38;;;6.62;100.00
35551;BME280;21655;46.056;13.616;2023-02-26T04:29:33;98994.94;;;6.63;100.00
35551;BME280;21655;46.056;13.616;2023-02-26T04:31:58;98997.22;;;6.60;100.00
35551;BME280;21655;46.056;13.616;2023-02-26T04:34:25;98990.50;;;6.62;100.00
35551;BME280;21655;46.056;13.616;2023-02-26T04:36:51;98977.09;;;6.59;100.00
35551;BME280;21655;46.056;13.616;2023-02-26T04:39:16;98983.44;;;6.60;100.00
35551;BME280;21655;46.056;13.616;2023-02-26T04:41:41;98986.88;;;6.62;100.00
35551;BME280;21655;46.056;13.616;2023-02-26T04:44:07;98986.69;;;6.63;100.00
35551;BME280;21655;46.056;13.616;2023-02-26T04:46:32;98986.88;;;6.62;100.00
35551;BME280;21655;46.056;13.616;2023-02-26T04:48:58;98971.78;;;6.58;100.00
35551;BME280;21655;46.056;13.616;2023-02-26T04:51:24;98989.50;;;6.55;100.00
35551;BME280;21655;46.056;13.616;2023-02-26T04:53:49;98986.59;;;6.57;100.00
35551;BME280;21655;46.056;13.616;2023-02-26T04:56:15;99017.03;;;6.55;100.00
35551;BME280;21655;46.056;13.616;2023-02-26T04:58:40;98998.66;;;6.56;100.00
35551;BME280;21655;46.056;13.616;2023-02-26T05:01:06;99011.53;;;6.55;100.00
35551;BME280;21655;46.056;13.616;2023-02-26T05:03:32;99001.56;;;6.54;100.00
35551;BME280;21655;46.056;13.616;2023-02-26T05:05:57;99011.38;;;6.57;100.00
35551;BME280;21655;46.056;13.616;2023-02-26T05:08:23;99023.81;;;6.53;100.00
35551;BME280;21655;46.056;13.616;2023-02-26T05:10:50;99010.88;;;6.53;100.00
35551;BME280;21655;46.056;13.616;2023-02-26T05:13:16;99045.44;;;6.56;100.00
35551;BME280;21655;46.056;13.616;2023-02-26T05:15:41;99043.53;;;6.56;100.00
35551;BME280;21655;46.056;13.616;2023-02-26T05:18:07;99049.72;;;6.58;100.00
35551;BME280;21655;46.056;13.616;2023-02-26T05:20:32;99057.50;;;6.55;100.00
35551;BME280;21655;46.056;13.616;2023-02-26T05:22:58;99068.16;;;6.58;100.00
35551;BME280;21655;46.056;13.616;2023-02-26T05:25:23;99061.97;;;6.56;100.00
35551;BME280;21655;46.056;13.616;2023-02-26T05:27:49;99071.44;;;6.53;100.00
35551;BME280;21655;46.056;13.616;2023-02-26T05:30:16;99050.56;;;6.44;100.00
35551;BME280;21655;46.056;13.616;2023-02-26T05:32:42;99043.03;;;6.38;100.00
35551;BME280;21655;46.056;13.616;2023-02-26T05:35:08;99072.47;;;6.38;100.00
35551;BME280;21655;46.056;13.616;2023-02-26T05:37:35;99062.56;;;6.29;100.00
35551;BME280;21655;46.056;13.616;2023-02-26T05:40:01;99070.16;;;6.27;100.00
35551;BME280;21655;46.056;13.616;2023-02-26T05:42:26;99066.06;;;6.23;100.00
35551;BME280;21655;46.056;13.616;2023-02-26T05:44:51;99063.34;;;6.15;100.00
35551;BME280;21655;46.056;13.616;2023-02-26T05:47:18;99064.03;;;6.17;100.00
35551;BME280;21655;46.056;13.616;2023-02-26T05:49:43;99050.84;;;6.12;100.00
35551;BME280;21655;46.056;13.616;2023-02-26T05:52:10;99043.81;;;6.10;100.00
35551;BME280;21655;46.056;13.616;2023-02-26T05:54:35;99047.59;;;6.09;100.00
35551;BME280;21655;46.056;13.616;2023-02-26T05:57:01;99070.81;;;6.06;100.00
35551;BME280;21655;46.056;13.616;2023-02-26T05:59:26;99065.03;;;6.01;100.00
35551;BME280;21655;46.056;13.616;2023-02-26T06:01:52;99060.19;;;6.03;100.00
35551;BME280;21655;46.056;13.616;2023-02-26T06:04:18;99060.72;;;5.99;100.00
35551;BME280;21655;46.056;13.616;2023-02-26T06:06:43;99061.41;;;6.01;100.00
35551;BME280;21655;46.056;13.616;2023-02-26T06:09:09;99048.34;;;6.03;100.00
35551;BME280;21655;46.056;13.616;2023-02-26T06:11:34;99050.41;;;6.01;100.00
35551;BME280;21655;46.056;13.616;2023-02-26T06:14:00;99030.31;;;6.00;100.00
35551;BME280;21655;46.056;13.616;2023-02-26T06:16:25;99044.44;;;5.97;100.00
35551;BME280;21655;46.056;13.616;2023-02-26T06:18:51;99040.44;;;6.00;100.00
35551;BME280;21655;46.056;13.616;2023-02-26T06:21:17;99048.69;;;6.00;100.00
35551;BME280;21655;46.056;13.616;2023-02-26T06:23:43;99041.59;;;6.05;100.00
35551;BME280;21655;46.056;13.616;2023-02-26T06:26:08;99079.94;;;6.07;100.00
35551;BME280;21655;46.056;13.616;2023-02-26T06:28:34;99105.22;;;6.10;100.00
35551;BME280;21655;46.056;13.616;2023-02-26T06:31:00;99113.25;;;6.12;100.00
35551;BME280;21655;46.056;13.616;2023-02-26T06:33:26;99127.88;;;6.12;100.00
35551;BME280;21655;46.056;13.616;2023-02-26T06:35:51;99130.25;;;6.15;100.00
35551;BME280;21655;46.056;13.616;2023-02-26T06:38:17;99134.56;;;6.18;100.00
35551;BME280;21655;46.056;13.616;2023-02-26T06:40:44;99155.88;;;6.16;100.00
35551;BME280;21655;46.056;13.616;2023-02-26T06:43:11;99135.22;;;6.20;100.00
35551;BME280;21655;46.056;13.616;2023-02-26T06:45:36;99140.72;;;6.20;100.00
35551;BME280;21655;46.056;13.616;2023-02-26T06:48:02;99129.72;;;6.20;100.00
35551;BME280;21655;46.056;13.616;2023-02-26T06:50:27;99144.03;;;6.15;100.00
35551;BME280;21655;46.056;13.616;2023-02-26T06:52:52;99172.25;;;6.09;100.00
35551;BME280;21655;46.056;13.616;2023-02-26T06:55:18;99181.00;;;6.13;100.00
35551;BME280;21655;46.056;13.616;2023-02-26T06:57:46;99167.91;;;6.15;100.00
35551;BME280;21655;46.056;13.616;2023-02-26T07:00:12;99168.28;;;6.12;100.00
35551;BME280;21655;46.056;13.616;2023-02-26T07:02:37;99173.09;;;6.18;100.00
35551;BME280;21655;46.056;13.616;2023-02-26T07:05:03;99159.66;;;6.15;100.00
35551;BME280;21655;46.056;13.616;2023-02-26T07:07:28;99179.72;;;6.23;100.00
35551;BME280;21655;46.056;13.616;2023-02-26T07:09:54;99191.25;;;6.27;100.00
35551;BME280;21655;46.056;13.616;2023-02-26T07:12:19;99202.75;;;6.30;100.00
35551;BME280;21655;46.056;13.616;2023-02-26T07:14:45;99192.28;;;6.26;100.00
35551;BME280;21655;46.056;13.616;2023-02-26T07:17:11;99195.56;;;6.21;100.00
35551;BME280;21655;46.056;13.616;2023-02-26T07:19:47;99190.56;;;6.25;100.00
35551;BME280;21655;46.056;13.616;2023-02-26T07:22:13;99199.50;;;6.27;100.00
35551;BME280;21655;46.056;13.616;2023-02-26T07:24:39;99204.63;;;6.30;100.00
35551;BME280;21655;46.056;13.616;2023-02-26T07:27:05;99210.09;;;6.38;100.00
35551;BME280;21655;46.056;13.616;2023-02-26T07:29:30;99236.75;;;6.37;100.00
35551;BME280;21655;46.056;13.616;2023-02-26T07:31:56;99211.59;;;6.40;100.00
35551;BME280;21655;46.056;13.616;2023-02-26T07:34:21;99234.19;;;6.36;100.00
35551;BME280;21655;46.056;13.616;2023-02-26T07:36:47;99221.28;;;6.36;100.00
35551;BME280;21655;46.056;13.616;2023-02-26T07:39:12;99219.25;;;6.30;100.00
35551;BME280;21655;46.056;13.616;2023-02-26T07:41:38;99238.91;;;6.27;100.00
35551;BME280;21655;46.056;13.616;2023-02-26T07:44:03;99270.88;;;6.28;100.00
35551;BME280;21655;46.056;13.616;2023-02-26T07:46:28;99252.97;;;6.32;100.00
35551;BME280;21655;46.056;13.616;2023-02-26T07:48:54;99251.63;;;6.28;100.00
35551;BME280;21655;46.056;13.616;2023-02-26T07:51:19;99244.56;;;6.26;100.00
35551;BME280;21655;46.056;13.616;2023-02-26T07:53:45;99247.50;;;6.24;100.00
35551;BME280;21655;46.056;13.616;2023-02-26T07:56:10;99238.56;;;6.22;100.00
35551;BME280;21655;46.056;13.616;2023-02-26T07:58:36;99234.38;;;6.34;100.00
35551;BME280;21655;46.056;13.616;2023-02-26T08:01:01;99217.06;;;6.48;100.00
35551;BME280;21655;46.056;13.616;2023-02-26T08:03:27;99216.03;;;6.49;100.00
35551;BME280;21655;46.056;13.616;2023-02-26T08:05:52;99235.44;;;6.56;98.41
35551;BME280;21655;46.056;13.616;2023-02-26T08:08:17;99230.44;;;6.59;97.82
35551;BME280;21655;46.056;13.616;2023-02-26T08:10:43;99210.66;;;6.56;96.59
35551;BME280;21655;46.056;13.616;2023-02-26T08:13:09;99245.91;;;6.60;96.71
35551;BME280;21655;46.056;13.616;2023-02-26T08:15:34;99249.22;;;6.56;96.61
35551;BME280;21655;46.056;13.616;2023-02-26T08:17:59;99234.56;;;6.55;97.42
35551;BME280;21655;46.056;13.616;2023-02-26T08:20:25;99227.06;;;6.72;93.23
35551;BME280;21655;46.056;13.616;2023-02-26T08:22:50;99249.00;;;6.80;90.29
35551;BME280;21655;46.056;13.616;2023-02-26T08:25:16;99233.53;;;7.01;88.46
35551;BME280;21655;46.056;13.616;2023-02-26T08:27:42;99231.72;;;7.08;88.41
35551;BME280;21655;46.056;13.616;2023-02-26T08:30:09;99228.91;;;7.31;83.83
35551;BME280;21655;46.056;13.616;2023-02-26T08:32:35;99223.91;;;7.34;82.48
35551;BME280;21655;46.056;13.616;2023-02-26T08:35:00;99223.38;;;7.82;79.03
35551;BME280;21655;46.056;13.616;2023-02-26T08:37:26;99225.09;;;7.68;78.96
35551;BME280;21655;46.056;13.616;2023-02-26T08:39:51;99231.34;;;7.48;80.54
35551;BME280;21655;46.056;13.616;2023-02-26T08:42:18;99216.13;;;7.38;80.76
35551;BME280;21655;46.056;13.616;2023-02-26T08:44:45;99226.81;;;7.18;79.61
35551;BME280;21655;46.056;13.616;2023-02-26T08:47:11;99244.94;;;7.13;81.01
35551;BME280;21655;46.056;13.616;2023-02-26T08:49:36;99239.44;;;7.13;81.94
35551;BME280;21655;46.056;13.616;2023-02-26T08:52:02;99258.31;;;7.01;83.08
35551;BME280;21655;46.056;13.616;2023-02-26T08:54:27;99250.31;;;6.92;83.97
35551;BME280;21655;46.056;13.616;2023-02-26T08:56:53;99232.13;;;6.83;82.72
35551;BME280;21655;46.056;13.616;2023-02-26T08:59:22;99236.69;;;6.90;83.89
35551;BME280;21655;46.056;13.616;2023-02-26T09:01:47;99239.84;;;6.87;84.25
35551;BME280;21655;46.056;13.616;2023-02-26T09:04:13;99219.50;;;6.88;83.83
35551;BME280;21655;46.056;13.616;2023-02-26T09:06:38;99213.88;;;6.82;82.03
35551;BME280;21655;46.056;13.616;2023-02-26T09:09:04;99226.97;;;6.80;82.09
35551;BME280;21655;46.056;13.616;2023-02-26T09:11:29;99213.22;;;6.80;82.66
35551;BME280;21655;46.056;13.616;2023-02-26T09:13:57;99224.78;;;6.75;82.95
35551;BME280;21655;46.056;13.616;2023-02-26T09:16:23;99232.19;;;6.75;82.13
35551;BME280;21655;46.056;13.616;2023-02-26T09:18:49;99243.03;;;6.76;81.40
35551;BME280;21655;46.056;13.616;2023-02-26T09:21:15;99244.69;;;6.85;83.11
35551;BME280;21655;46.056;13.616;2023-02-26T09:23:41;99252.94;;;6.85;83.00
35551;BME280;21655;46.056;13.616;2023-02-26T09:26:06;99259.31;;;6.86;85.06
35551;BME280;21655;46.056;13.616;2023-02-26T09:28:33;99255.19;;;6.82;85.08
35551;BME280;21655;46.056;13.616;2023-02-26T09:30:59;99257.59;;;6.85;87.61
35551;BME280;21655;46.056;13.616;2023-02-26T09:33:24;99258.81;;;6.82;90.92
35551;BME280;21655;46.056;13.616;2023-02-26T09:35:51;99260.44;;;6.91;91.40
35551;BME280;21655;46.056;13.616;2023-02-26T09:38:17;99254.53;;;7.02;92.37
35551;BME280;21655;46.056;13.616;2023-02-26T09:46:09;99276.91;;;6.85;89.49
35551;BME280;21655;46.056;13.616;2023-02-26T09:48:37;99260.22;;;6.78;89.44
35551;BME280;21655;46.056;13.616;2023-02-26T09:51:04;99270.91;;;6.73;88.83
35551;BME280;21655;46.056;13.616;2023-02-26T09:53:38;99297.78;;;6.71;89.37
35551;BME280;21655;46.056;13.616;2023-02-26T09:56:21;99279.94;;;6.67;91.39
35551;BME280;21655;46.056;13.616;2023-02-26T09:58:48;99268.38;;;6.72;93.37
35551;BME280;21655;46.056;13.616;2023-02-26T10:01:28;99277.31;;;6.74;93.73
35551;BME280;21655;46.056;13.616;2023-02-26T10:04:08;99261.16;;;6.71;90.96
35551;BME280;21655;46.056;13.616;2023-02-26T10:06:59;99303.84;;;6.67;91.76
35551;BME280;21655;46.056;13.616;2023-02-26T10:12:19;99293.88;;;6.66;92.30
35551;BME280;21655;46.056;13.616;2023-02-26T10:14:54;99300.75;;;6.70;92.37
35551;BME280;21655;46.056;13.616;2023-02-26T10:17:29;99307.47;;;6.67;90.36
35551;BME280;21655;46.056;13.616;2023-02-26T10:20:03;99317.94;;;6.72;93.03
35551;BME280;21655;46.056;13.616;2023-02-26T10:22:38;99302.50;;;6.63;94.25
35551;BME280;21655;46.056;13.616;2023-02-26T10:25:24;99302.03;;;6.59;93.02
35551;BME280;21655;46.056;13.616;2023-02-26T10:28:00;99314.75;;;6.60;91.53
35551;BME280;21655;46.056;13.616;2023-02-26T10:30:43;99317.28;;;6.70;87.58
35551;BME280;21655;46.056;13.616;2023-02-26T10:33:17;99288.06;;;6.61;89.06
35551;BME280;21655;46.056;13.616;2023-02-26T10:35:52;99314.69;;;6.68;88.79
35551;BME280;21655;46.056;13.616;2023-02-26T10:38:26;99323.25;;;6.73;89.90
35551;BME280;21655;46.056;13.616;2023-02-26T10:40:59;99310.59;;;6.64;91.40
35551;BME280;21655;46.056;13.616;2023-02-26T10:43:55;99314.28;;;6.79;90.33
35551;BME280;21655;46.056;13.616;2023-02-26T10:51:55;99329.41;;;6.83;93.38
35551;BME280;21655;46.056;13.616;2023-02-26T10:54:36;99345.75;;;6.85;91.79
35551;BME280;21655;46.056;13.616;2023-02-26T10:57:03;99334.84;;;6.69;90.40
35551;BME280;21655;46.056;13.616;2023-02-26T10:59:30;99341.03;;;6.71;90.31
35551;BME280;21655;46.056;13.616;2023-02-26T11:01:57;99345.50;;;6.72;87.39
35551;BME280;21655;46.056;13.616;2023-02-26T11:04:25;99353.75;;;6.72;86.38
35551;BME280;21655;46.056;13.616;2023-02-26T11:06:56;99338.63;;;6.68;87.33
35551;BME280;21655;46.056;13.616;2023-02-26T11:09:29;99366.34;;;6.66;88.18
35551;BME280;21655;46.056;13.616;2023-02-26T11:14:47;99369.38;;;6.79;95.68
35551;BME280;21655;46.056;13.616;2023-02-26T11:17:16;99375.13;;;6.70;90.67
35551;BME280;21655;46.056;13.616;2023-02-26T11:19:52;99366.56;;;6.57;89.12
35551;BME280;21655;46.056;13.616;2023-02-26T11:22:21;99351.38;;;6.61;88.22
35551;BME280;21655;46.056;13.616;2023-02-26T11:24:48;99361.22;;;6.55;84.88
35551;BME280;21655;46.056;13.616;2023-02-26T11:27:25;99381.69;;;6.61;86.83
35551;BME280;21655;46.056;13.616;2023-02-26T11:30:18;99369.59;;;6.70;87.34
35551;BME280;21655;46.056;13.616;2023-02-26T11:32:49;99367.16;;;6.75;84.03
35551;BME280;21655;46.056;13.616;2023-02-26T11:35:16;99393.72;;;6.68;83.41
35551;BME280;21655;46.056;13.616;2023-02-26T11:37:52;99384.59;;;6.67;84.60
35551;BME280;21655;46.056;13.616;2023-02-26T11:40:34;99380.47;;;6.63;82.93
35551;BME280;21655;46.056;13.616;2023-02-26T11:43:11;99375.66;;;6.65;84.80
35551;BME280;21655;46.056;13.616;2023-02-26T11:45:42;99357.84;;;6.76;87.05
35551;BME280;21655;46.056;13.616;2023-02-26T11:48:12;99376.09;;;6.77;84.82
35551;BME280;21655;46.056;13.616;2023-02-26T11:50:43;99369.28;;;6.95;83.06
35551;BME280;21655;46.056;13.616;2023-02-26T11:53:19;99368.72;;;7.00;81.87
35551;BME280;21655;46.056;13.616;2023-02-26T11:55:51;99372.28;;;7.08;80.76
35551;BME280;21655;46.056;13.616;2023-02-26T11:58:21;99375.50;;;7.20;79.24
35551;BME280;21655;46.056;13.616;2023-02-26T12:00:47;99376.28;;;7.28;78.68
35551;BME280;21655;46.056;13.616;2023-02-26T12:03:26;99372.63;;;7.36;77.10
35551;BME280;21655;46.056;13.616;2023-02-26T12:05:57;99383.81;;;7.34;77.70
35551;BME280;21655;46.056;13.616;2023-02-26T12:08:32;99392.56;;;7.15;77.73
35551;BME280;21655;46.056;13.616;2023-02-26T12:16:27;99385.81;;;6.95;78.62
35551;BME280;21655;46.056;13.616;2023-02-26T12:19:03;99398.22;;;6.91;78.35
35551;BME280;21655;46.056;13.616;2023-02-26T12:24:44;99397.09;;;6.78;77.15
35551;BME280;21655;46.056;13.616;2023-02-26T12:27:30;99414.81;;;6.75;76.45
35551;BME280;21655;46.056;13.616;2023-02-26T12:33:48;99376.31;;;6.67;79.05
35551;BME280;21655;46.056;13.616;2023-02-26T12:36:31;99391.66;;;6.62;77.65
35551;BME280;21655;46.056;13.616;2023-02-26T12:50:46;99397.63;;;6.73;75.63
35551;BME280;21655;46.056;13.616;2023-02-26T13:07:19;99400.34;;;7.12;68.67
35551;BME280;21655;46.056;13.616;2023-02-26T13:13:25;99419.31;;;7.07;70.38
35551;BME280;21655;46.056;13.616;2023-02-26T13:15:51;99389.19;;;7.05;69.55
35551;BME280;21655;46.056;13.616;2023-02-26T13:24:03;99408.72;;;7.18;68.33
35551;BME280;21655;46.056;13.616;2023-02-26T13:26:32;99400.06;;;7.29;66.46
35551;BME280;21655;46.056;13.616;2023-02-26T13:29:16;99408.91;;;7.39;64.11
35551;BME280;21655;46.056;13.616;2023-02-26T13:31:57;99409.72;;;7.47;63.17
35551;BME280;21655;46.056;13.616;2023-02-26T13:45:37;99435.53;;;7.32;60.32
35551;BME280;21655;46.056;13.616;2023-02-26T13:48:43;99464.81;;;7.33;59.95
35551;BME280;21655;46.056;13.616;2023-02-26T13:54:45;99456.56;;;7.55;61.20
35551;BME280;21655;46.056;13.616;2023-02-26T14:07:06;99482.72;;;6.99;63.45
35551;BME280;21655;46.056;13.616;2023-02-26T14:09:46;99504.16;;;6.81;63.02
35551;BME280;21655;46.056;13.616;2023-02-26T14:12:29;99480.78;;;6.77;62.53
35551;BME280;21655;46.056;13.616;2023-02-26T14:17:48;99483.56;;;6.69;60.25
35551;BME280;21655;46.056;13.616;2023-02-26T14:22:49;99477.91;;;6.54;59.07
35551;BME280;21655;46.056;13.616;2023-02-26T14:25:38;99462.91;;;6.65;59.76
35551;BME280;21655;46.056;13.616;2023-02-26T14:28:31;99473.06;;;6.64;59.50
35551;BME280;21655;46.056;13.616;2023-02-26T14:31:10;99469.66;;;6.62;59.05
35551;BME280;21655;46.056;13.616;2023-02-26T14:33:45;99480.66;;;6.62;59.62
35551;BME280;21655;46.056;13.616;2023-02-26T14:36:31;99480.63;;;6.70;60.53
35551;BME280;21655;46.056;13.616;2023-02-26T14:39:00;99461.19;;;6.64;60.66
35551;BME280;21655;46.056;13.616;2023-02-26T14:41:32;99483.78;;;6.59;60.70
35551;BME280;21655;46.056;13.616;2023-02-26T14:46:35;99492.91;;;6.44;62.80
35551;BME280;21655;46.056;13.616;2023-02-26T14:49:00;99494.47;;;6.38;64.13
35551;BME280;21655;46.056;13.616;2023-02-26T14:51:32;99509.09;;;6.39;64.58
35551;BME280;21655;46.056;13.616;2023-02-26T14:57:03;99507.22;;;6.31;66.70
35551;BME280;21655;46.056;13.616;2023-02-26T15:24:31;99551.47;;;6.06;63.97
35551;BME280;21655;46.056;13.616;2023-02-26T15:27:00;99522.91;;;6.07;64.22
35551;BME280;21655;46.056;13.616;2023-02-26T15:29:30;99526.19;;;6.10;62.89
35551;BME280;21655;46.056;13.616;2023-02-26T15:31:58;99552.97;;;6.08;62.25
35551;BME280;21655;46.056;13.616;2023-02-26T15:34:27;99533.22;;;6.05;62.86
35551;BME280;21655;46.056;13.616;2023-02-26T15:36:55;99549.91;;;6.11;62.32
35551;BME280;21655;46.056;13.616;2023-02-26T15:39:23;99549.03;;;6.11;61.48
35551;BME280;21655;46.056;13.616;2023-02-26T15:41:51;99556.75;;;6.07;61.60
35551;BME280;21655;46.056;13.616;2023-02-26T15:44:27;99558.84;;;6.05;61.85
35551;BME280;21655;46.056;13.616;2023-02-26T15:47:00;99583.94;;;6.02;61.96
35551;BME280;21655;46.056;13.616;2023-02-26T15:49:35;99573.44;;;5.98;62.48
35551;BME280;21655;46.056;13.616;2023-02-26T15:52:03;99563.31;;;5.98;63.40
35551;BME280;21655;46.056;13.616;2023-02-26T15:54:36;99577.75;;;6.00;62.64
35551;BME280;21655;46.056;13.616;2023-02-26T15:57:04;99554.38;;;5.96;61.89
35551;BME280;21655;46.056;13.616;2023-02-26T15:59:31;99580.31;;;5.94;62.85